createdAt,value
2023-03-06T00:04:02.248Z,99182.56
2023-03-06T00:09:03.954Z,99180.63
2023-03-06T00:14:05.657Z,99171.91
2023-03-06T00:19:07.364Z,99164.53
2023-03-06T00:24:09.028Z,99163.72
2023-03-06T00:29:10.627Z,99158.72
2023-03-06T00:34:12.261Z,99152.13
2023-03-06T00:39:13.996Z,99141.72
2023-03-06T00:44:15.680Z,99127.63
2023-03-06T00:49:17.287Z,99117.94
2023-03-06T00:54:18.962Z,99113.53
2023-03-06T00:59:20.673Z,99107.03
2023-03-06T01:04:22.564Z,99096.81
2023-03-06T01:09:24.726Z,99101.44
2023-03-06T01:14:26.455Z,99089.63
2023-03-06T01:19:28.224Z,99086.63
2023-03-06T01:24:29.888Z,99087.50
2023-03-06T01:29:31.529Z,99085.75
2023-03-06T01:34:33.154Z,99076.31
2023-03-06T01:39:34.775Z,99078.97
2023-03-06T01:44:36.397Z,99067.88
2023-03-06T01:49:41.406Z,99068.78
2023-03-06T01:54:43.011Z,99057.88
2023-03-06T01:59:47.917Z,99050.69
2023-03-06T02:04:49.628Z,99041.16
2023-03-06T02:09:51.276Z,99044.97
2023-03-06T02:14:53.585Z,99038.19
2023-03-06T02:20:20.830Z,99033.41
2023-03-06T02:25:35.863Z,99017.47
2023-03-06T02:30:37.613Z,99020.75
2023-03-06T02:35:40.790Z,99015.56
2023-03-06T02:40:44.805Z,99014.44
2023-03-06T02:45:48.726Z,99005.94
2023-03-06T02:50:50.488Z,99002.13
2023-03-06T02:55:52.376Z,99002.50
2023-03-06T03:00:54.019Z,98997.34
2023-03-06T03:05:55.687Z,99001.53
2023-03-06T03:10:57.690Z,98996.88
2023-03-06T03:16:07.012Z,98990.88
2023-03-06T03:21:10.275Z,98989.66
2023-03-06T03:26:20.722Z,98991.59
2023-03-06T03:31:22.481Z,98990.94
2023-03-06T03:36:24.718Z,98984.06
2023-03-06T03:41:26.377Z,98984.94
2023-03-06T03:46:28.276Z,98990.72
2023-03-06T03:51:30.078Z,98980.03
2023-03-06T03:56:32.317Z,98980.75
2023-03-06T04:01:34.230Z,98976.97
2023-03-06T04:06:35.921Z,98958.81
2023-03-06T04:11:37.622Z,98963.19
2023-03-06T04:16:39.263Z,98953.81
2023-03-06T04:21:40.993Z,98946.06
2023-03-06T04:26:42.651Z,98942.38
2023-03-06T04:31:44.419Z,98936.28
2023-03-06T04:36:46.224Z,98938.34
2023-03-06T04:41:47.878Z,98931.09
2023-03-06T04:46:49.827Z,98929.56
2023-03-06T04:51:51.529Z,98925.28
2023-03-06T04:56:53.163Z,98921.16
2023-03-06T05:01:54.995Z,98915.38
2023-03-06T05:06:56.634Z,98918.16
2023-03-06T05:11:58.331Z,98913.91
2023-03-06T05:17:00.091Z,98918.38
2023-03-06T05:22:01.830Z,98913.06
2023-03-06T05:27:04.394Z,98906.47
2023-03-06T05:32:06.284Z,98908.19
2023-03-06T05:37:08.366Z,98903.63
2023-03-06T05:42:10.153Z,98906.53
2023-03-06T05:47:12.205Z,98902.59
2023-03-06T05:52:14.918Z,98901.88
2023-03-06T05:57:16.672Z,98897.84
2023-03-06T06:02:19.057Z,98905.69
2023-03-06T06:07:20.782Z,98898.72
2023-03-06T06:12:22.460Z,98910.31
2023-03-06T06:17:24.092Z,98907.47
2023-03-06T06:22:25.715Z,98912.25
2023-03-06T06:27:27.415Z,98909.22
2023-03-06T06:32:29.137Z,98904.44
2023-03-06T06:37:31.454Z,98904.25
2023-03-06T06:42:38.948Z,98902.44
2023-03-06T06:47:41.783Z,98900.63
2023-03-06T06:52:43.726Z,98894.44
2023-03-06T06:57:45.346Z,98888.09
2023-03-06T07:02:49.329Z,98897.63
2023-03-06T07:07:51.533Z,98899.13
2023-03-06T07:12:53.416Z,98907.91
2023-03-06T07:17:55.151Z,98912.59
2023-03-06T07:22:56.849Z,98912.84
2023-03-06T07:27:59.025Z,98909.56
2023-03-06T07:33:00.741Z,98909.75
2023-03-06T07:38:02.524Z,98913.22
2023-03-06T07:43:18.286Z,98904.53
2023-03-06T07:48:20.619Z,98902.31
2023-03-06T07:53:22.747Z,98907.69
2023-03-06T07:58:24.543Z,98909.50
2023-03-06T08:03:26.293Z,98920.06
2023-03-06T08:08:27.955Z,98929.31
2023-03-06T08:13:29.578Z,98921.13
2023-03-06T08:18:31.241Z,98925.53
2023-03-06T08:23:34.053Z,98927.72
2023-03-06T08:28:35.793Z,98921.78
2023-03-06T08:33:37.644Z,98922.44
2023-03-06T08:38:39.282Z,98919.56
2023-03-06T08:43:40.962Z,98928.16
2023-03-06T08:48:42.616Z,98930.66
2023-03-06T08:53:44.890Z,98925.16
2023-03-06T08:58:49.634Z,98932.16
2023-03-06T09:03:53.245Z,98926.09
2023-03-06T09:08:55.093Z,98921.03
2023-03-06T09:13:57.330Z,98918.56
2023-03-06T09:18:59.030Z,98925.59
2023-03-06T09:24:00.703Z,98926.94
2023-03-06T09:29:02.675Z,98931.56
2023-03-06T09:34:04.359Z,98939.72
2023-03-06T09:39:05.977Z,98940.13
2023-03-06T09:44:15.186Z,98937.78
2023-03-06T09:49:19.782Z,98935.78
2023-03-06T09:54:31.452Z,98933.63
2023-03-06T09:59:33.460Z,98931.44
2023-03-06T10:04:40.695Z,98931.94
2023-03-06T10:09:48.528Z,98941.97
2023-03-06T10:15:16.294Z,98926.41
2023-03-06T10:20:22.718Z,98925.66
2023-03-06T10:25:30.884Z,98917.69
2023-03-06T10:30:46.570Z,98916.59
2023-03-06T10:35:49.647Z,98920.09
2023-03-06T10:41:13.432Z,98917.44
2023-03-06T10:46:31.166Z,98912.06
2023-03-06T10:51:34.628Z,98916.22
2023-03-06T10:56:39.582Z,98912.63
2023-03-06T11:01:44.628Z,98911.72
2023-03-06T11:06:46.299Z,98905.84
2023-03-06T11:11:48.474Z,98910.72
2023-03-06T11:16:53.822Z,98901.41
2023-03-06T11:22:01.452Z,98902.09
2023-03-06T11:27:22.391Z,98897.09
2023-03-06T11:32:45.523Z,98887.59
2023-03-06T11:37:54.120Z,98878.56
2023-03-06T11:43:20.281Z,98869.34
2023-03-06T11:48:28.868Z,98872.09
2023-03-06T11:53:39.487Z,98868.13
2023-03-06T11:59:07.752Z,98864.16
2023-03-06T12:04:37.468Z,98859.81
2023-03-06T12:09:44.384Z,98871.22
2023-03-06T12:14:57.971Z,98859.69
2023-03-06T12:20:29.112Z,98847.22
2023-03-06T12:25:42.183Z,98840.06
2023-03-06T12:31:19.692Z,98831.75
2023-03-06T12:36:33.382Z,98832.84
2023-03-06T12:41:50.105Z,98827.34
2023-03-06T12:46:59.186Z,98811.06
2023-03-06T12:52:02.562Z,98797.00
2023-03-06T12:57:08.550Z,98789.38
2023-03-06T13:02:28.880Z,98789.66
2023-03-06T13:07:33.345Z,98771.72
2023-03-06T13:12:40.646Z,98779.69
2023-03-06T13:17:42.324Z,98772.63
2023-03-06T13:22:46.287Z,98775.16
2023-03-06T13:28:03.290Z,98767.72
2023-03-06T13:33:26.938Z,98765.16
2023-03-06T13:38:41.393Z,98766.28
2023-03-06T13:43:45.349Z,98766.81
2023-03-06T13:49:08.848Z,98757.75
2023-03-06T13:54:28.370Z,98753.78
2023-03-06T14:00:10.061Z,98744.75
2023-03-06T14:05:17.044Z,98748.41
2023-03-06T14:10:26.104Z,98751.22
2023-03-06T14:15:39.957Z,98751.97
2023-03-06T14:20:44.321Z,98749.56
2023-03-06T14:25:46.729Z,98765.47
2023-03-06T14:30:52.891Z,98764.59
2023-03-06T14:35:58.618Z,98764.22
2023-03-06T14:41:01.012Z,98761.25
2023-03-06T14:46:06.500Z,98766.84
2023-03-06T14:51:14.580Z,98767.75
2023-03-06T14:56:22.113Z,98766.34
2023-03-06T15:01:33.075Z,98762.81
2023-03-06T15:06:43.622Z,98759.00
2023-03-06T15:11:55.217Z,98763.72
2023-03-06T15:16:56.908Z,98755.22
2023-03-06T15:21:58.770Z,98757.22
2023-03-06T15:27:16.453Z,98753.63
2023-03-06T15:32:31.498Z,98748.66
2023-03-06T15:37:34.308Z,98745.75
2023-03-06T15:42:36.737Z,98754.66
2023-03-06T15:47:38.999Z,98744.91
2023-03-06T15:52:40.685Z,98747.59
2023-03-06T15:57:51.334Z,98751.28
2023-03-06T16:02:53.435Z,98757.50
2023-03-06T16:07:55.702Z,98756.22
2023-03-06T16:13:03.122Z,98743.22
2023-03-06T16:18:06.257Z,98751.94
2023-03-06T16:23:10.577Z,98753.22
2023-03-06T16:28:14.724Z,98753.13
2023-03-06T16:33:16.435Z,98755.41
2023-03-06T16:38:18.074Z,98761.47
2023-03-06T16:43:19.724Z,98767.81
2023-03-06T16:48:21.374Z,98771.41
2023-03-06T16:53:23.000Z,98765.06
2023-03-06T16:58:24.735Z,98756.59
2023-03-06T17:03:26.430Z,98759.16
2023-03-06T17:08:28.146Z,98761.56
2023-03-06T17:13:29.872Z,98759.56
2023-03-06T17:18:31.876Z,98760.06
2023-03-06T17:23:33.523Z,98759.41
2023-03-06T17:28:36.877Z,98764.75
2023-03-06T17:33:38.543Z,98760.50
2023-03-06T17:38:40.656Z,98771.97
2023-03-06T17:43:42.351Z,98767.44
2023-03-06T17:48:44.684Z,98767.69
2023-03-06T17:53:46.327Z,98758.31
2023-03-06T17:58:47.943Z,98763.25
2023-03-06T18:03:51.565Z,98757.66
2023-03-06T18:08:54.040Z,98756.25
2023-03-06T18:13:55.721Z,98762.56
2023-03-06T18:18:57.723Z,98761.66
2023-03-06T18:23:59.472Z,98759.41
2023-03-06T18:29:04.461Z,98742.72
2023-03-06T18:34:13.428Z,98750.97
2023-03-06T18:39:15.825Z,98750.56
2023-03-06T18:44:17.723Z,98745.34
2023-03-06T18:49:19.439Z,98750.19
2023-03-06T18:54:21.067Z,98744.34
2023-03-06T18:59:22.738Z,98748.53
2023-03-06T19:04:26.232Z,98739.19
2023-03-06T19:09:27.972Z,98747.03
2023-03-06T19:14:29.935Z,98735.59
2023-03-06T19:19:32.406Z,98724.66
2023-03-06T19:24:34.870Z,98744.19
2023-03-06T19:29:39.409Z,98741.38
2023-03-06T19:34:41.067Z,98743.50
2023-03-06T19:39:43.236Z,98744.88
2023-03-06T19:44:44.996Z,98748.81
2023-03-06T19:49:46.608Z,98739.25
2023-03-06T19:54:48.464Z,98748.13
2023-03-06T19:59:51.482Z,98748.22
2023-03-06T20:04:55.968Z,98734.06
2023-03-06T20:10:00.759Z,98726.53
2023-03-06T20:15:02.491Z,98726.38
2023-03-06T20:20:04.391Z,98728.75
2023-03-06T20:25:06.292Z,98712.41
2023-03-06T20:30:08.758Z,98714.44
2023-03-06T20:35:10.431Z,98715.66
2023-03-06T20:40:12.483Z,98707.06
2023-03-06T20:45:15.553Z,98707.13
2023-03-06T20:50:17.249Z,98699.63
2023-03-06T20:55:18.989Z,98707.97
2023-03-06T21:00:21.124Z,98705.19
2023-03-06T21:05:23.059Z,98702.41
2023-03-06T21:10:24.823Z,98689.59
2023-03-06T21:15:29.968Z,98685.34
2023-03-06T21:20:31.840Z,98677.09
2023-03-06T21:25:33.655Z,98675.88
2023-03-06T21:30:35.298Z,98662.47
2023-03-06T21:35:38.290Z,98667.25
2023-03-06T21:40:40.002Z,98659.25
2023-03-06T21:45:46.144Z,98663.03
2023-03-06T21:50:47.957Z,98652.66
2023-03-06T21:55:49.594Z,98650.84
2023-03-06T22:00:51.328Z,98646.72
2023-03-06T22:05:53.283Z,98636.94
2023-03-06T22:10:54.928Z,98629.47
2023-03-06T22:15:56.872Z,98624.69
2023-03-06T22:20:58.654Z,98619.09
2023-03-06T22:26:05.322Z,98607.44
2023-03-06T22:31:12.095Z,98606.38
2023-03-06T22:36:15.561Z,98617.41
2023-03-06T22:41:18.131Z,98610.56
2023-03-06T22:46:19.845Z,98614.44
2023-03-06T22:51:21.728Z,98605.63
2023-03-06T22:56:23.944Z,98611.59
2023-03-06T23:01:30.985Z,98607.22
2023-03-06T23:06:35.588Z,98590.38
2023-03-06T23:11:37.197Z,98590.44
2023-03-06T23:16:39.206Z,98578.16
2023-03-06T23:21:41.930Z,98579.97
2023-03-06T23:26:43.728Z,98575.03
2023-03-06T23:31:45.336Z,98569.50
2023-03-06T23:36:46.996Z,98567.03
2023-03-06T23:41:48.582Z,98564.09
2023-03-06T23:46:50.280Z,98557.50
2023-03-06T23:51:51.959Z,98562.28
2023-03-06T23:56:53.629Z,98560.59
